CheckWX is a tool to help pilots better visualize weather data.  It is not intended as a substitute for an official pre-flight weather briefing.

00:55:18 UTC

KLWM METAR
Lawrence Municipal Airport
Lawrence, Massachusetts, USA
Current

1 hour ago

KLWM 222354Z VRB03KT 10SM CLR 14/03 A3025 RMK AO2 SLP241 T01390028 10206 20139 51013
Observed
May-22 @ 23:54 UTC
Wind
  • Variable at 3 KTS
Visibility
10 SM
Flight Rules
VFR
Cloud Levels
  • Clear skies
Temperature
14°C / 57°F
Dewpoint
C / 37°F
Humidity
48%
Altimeter
30.25" Hg
Pressure
1024.42 hPa
Previous

2 hours ago

KLWM 222254Z 13007KT 10SM CLR 16/02 A3023 RMK AO2 SLP237 T01610022
Observed
May-22 @ 22:54 UTC
Wind
  • 130° at 7 KTS
Visibility
10 SM
Flight Rules
VFR
Cloud Levels
  • Clear skies
Temperature
16°C / 61°F
Dewpoint
C / 36°F
Humidity
39%
Altimeter
30.23" Hg
Pressure
1023.72 hPa
Previous

3 hours ago

KLWM 222154Z VRB05KT 10SM CLR 18/02 A3022 RMK AO2 SLP233 T01780022
Observed
May-22 @ 21:54 UTC
Wind
  • Variable at 5 KTS
Visibility
10 SM
Flight Rules
VFR
Cloud Levels
  • Clear skies
Temperature
18°C / 64°F
Dewpoint
C / 36°F
Humidity
34%
Altimeter
30.22" Hg
Pressure
1023.42 hPa